Time,TemperatureF,DewpointF,PressureIn,WindDirection,WindDirectionDegrees,WindSpeedMPH,WindSpeedGustMPH,Humidity,HourlyPrecipIn,Conditions,Clouds,dailyrainin,SoftwareType,DateUTC
2013-02-19 00:12:00,32.9,32.0,29.41,ESE,106,9.0,10.0,95,0.00,,,0.00,weatherlink.com 1.10,2013-02-19 05:12:00,
2013-02-19 00:27:00,32.9,32.0,29.40,ESE,122,7.0,12.0,95,0.00,,,0.00,weatherlink.com 1.10,2013-02-19 05:27:00,
2013-02-19 00:42:00,33.0,32.0,29.40,East,85,9.0,11.0,95,0.00,,,0.00,weatherlink.com 1.10,2013-02-19 05:42:00,
2013-02-19 00:57:00,33.1,32.0,29.38,East,97,7.0,11.0,95,0.00,,,0.00,weatherlink.com 1.10,2013-02-19 05:57:00,
2013-02-19 01:12:00,33.1,32.0,29.37,East,99,5.0,13.0,95,0.00,,,0.00,weatherlink.com 1.10,2013-02-19 06:12:00,
2013-02-19 01:27:00,33.0,32.0,29.35,ENE,65,7.0,10.0,95,0.00,,,0.00,weatherlink.com 1.10,2013-02-19 06:27:00,
2013-02-19 01:42:00,32.1,31.0,29.34,East,91,8.0,11.0,95,0.00,,,0.00,weatherlink.com 1.10,2013-02-19 06:42:00,
2013-02-19 01:57:00,31.6,31.0,29.33,ENE,72,5.0,9.0,96,0.00,,,0.00,weatherlink.com 1.10,2013-02-19 06:57:00,
2013-02-19 02:12:00,31.6,31.0,29.31,East,96,9.0,9.0,96,0.00,,,0.00,weatherlink.com 1.10,2013-02-19 07:12:00,
2013-02-19 02:27:00,32.1,31.0,29.30,ENE,73,7.0,8.0,96,0.00,,,0.00,weatherlink.com 1.10,2013-02-19 07:27:00,
2013-02-19 02:42:00,31.8,31.0,29.28,East,84,8.0,10.0,96,0.00,,,0.00,weatherlink.com 1.10,2013-02-19 07:42:00,
2013-02-19 02:58:00,31.6,31.0,29.27,East,86,10.0,11.0,96,0.00,,,0.00,weatherlink.com 1.10,2013-02-19 07:58:00,
2013-02-19 03:13:00,31.8,31.0,29.26,East,91,9.0,12.0,96,0.00,,,0.00,weatherlink.com 1.10,2013-02-19 08:13:00,
2013-02-19 03:28:00,32.3,31.0,29.24,East,84,8.0,10.0,96,0.00,,,0.00,weatherlink.com 1.10,2013-02-19 08:28:00,
2013-02-19 03:43:00,32.4,31.0,29.23,ENE,74,9.0,10.0,96,0.00,,,0.00,weatherlink.com 1.10,2013-02-19 08:43:00,
2013-02-19 03:58:00,32.6,32.0,29.21,East,91,6.0,15.0,96,0.00,,,0.00,weatherlink.com 1.10,2013-02-19 08:58:00,
2013-02-19 04:13:00,32.7,32.0,29.20,ENE,68,9.0,14.0,97,0.00,,,0.00,weatherlink.com 1.10,2013-02-19 09:13:00,
2013-02-19 04:28:00,32.8,32.0,29.18,East,100,7.0,10.0,97,0.00,,,0.00,weatherlink.com 1.10,2013-02-19 09:28:00,
2013-02-19 04:43:00,32.9,32.0,29.17,ENE,70,9.0,10.0,97,0.00,,,0.00,weatherlink.com 1.10,2013-02-19 09:43:00,
2013-02-19 04:58:00,33.1,32.0,29.16,East,84,8.0,12.0,96,0.00,,,0.00,weatherlink.com 1.10,2013-02-19 09:58:00,
2013-02-19 05:13:00,33.1,32.0,29.14,East,93,7.0,9.0,96,0.00,,,0.00,weatherlink.com 1.10,2013-02-19 10:13:00,
2013-02-19 05:28:00,33.1,32.0,29.13,East,84,7.0,9.0,96,0.00,,,0.00,weatherlink.com 1.10,2013-02-19 10:28:00,
2013-02-19 05:43:00,33.2,32.0,29.12,East,91,7.0,10.0,96,0.00,,,0.00,weatherlink.com 1.10,2013-02-19 10:43:00,
2013-02-19 05:58:00,33.0,32.0,29.11,East,94,5.0,7.0,96,0.00,,,0.00,weatherlink.com 1.10,2013-02-19 10:58:00,
2013-02-19 06:13:00,33.1,32.0,29.10,ENE,74,6.0,8.0,97,0.00,,,0.00,weatherlink.com 1.10,2013-02-19 11:13:00,
2013-02-19 06:28:00,33.2,33.0,29.09,ESE,102,6.0,8.0,97,0.00,,,0.00,weatherlink.com 1.10,2013-02-19 11:28:00,
2013-02-19 06:43:00,33.3,33.0,29.08,East,84,8.0,8.0,97,0.00,,,0.00,weatherlink.com 1.10,2013-02-19 11:43:00,
2013-02-19 06:58:00,33.4,32.0,29.07,ENE,65,6.0,10.0,96,0.00,,,0.00,weatherlink.com 1.10,2013-02-19 11:58:00,
2013-02-19 07:13:00,33.4,32.0,29.06,East,85,4.0,7.0,96,0.00,,,0.00,weatherlink.com 1.10,2013-02-19 12:13:00,
2013-02-19 07:28:00,33.5,33.0,29.06,ENE,72,8.0,9.0,96,0.00,,,0.00,weatherlink.com 1.10,2013-02-19 12:28:00,
2013-02-19 07:43:00,33.5,33.0,29.05,East,83,4.0,5.0,96,0.00,,,0.00,weatherlink.com 1.10,2013-02-19 12:43:00,
2013-02-19 07:58:00,33.5,33.0,29.04,SE,124,0.0,4.0,97,0.00,,,0.00,weatherlink.com 1.10,2013-02-19 12:58:00,
2013-02-19 08:14:00,33.9,33.0,29.04,East,96,4.0,4.0,97,0.00,,,0.00,weatherlink.com 1.10,2013-02-19 13:14:00,
2013-02-19 08:29:00,34.0,33.0,29.04,SE,127,2.0,6.0,97,0.00,,,0.00,weatherlink.com 1.10,2013-02-19 13:29:00,
2013-02-19 08:44:00,34.4,34.0,29.04,SSE,150,1.0,7.0,97,0.00,,,0.00,weatherlink.com 1.10,2013-02-19 13:44:00,
2013-02-19 08:59:00,34.2,34.0,29.04,SSE,158,3.0,4.0,97,0.00,,,0.00,weatherlink.com 1.10,2013-02-19 13:59:00,
2013-02-19 09:14:00,33.8,33.0,29.03,SSW,197,0.0,3.0,96,0.00,,,0.00,weatherlink.com 1.10,2013-02-19 14:14:00,
2013-02-19 09:29:00,33.6,33.0,29.03,SSE,149,1.0,5.0,96,0.00,,,0.00,weatherlink.com 1.10,2013-02-19 14:29:00,
2013-02-19 09:44:00,33.4,32.0,29.04,SE,134,1.0,4.0,96,0.00,,,0.00,weatherlink.com 1.10,2013-02-19 14:44:00,
2013-02-19 09:59:00,33.1,32.0,29.04,SSE,150,1.0,4.0,96,0.00,,,0.00,weatherlink.com 1.10,2013-02-19 14:59:00,
2013-02-19 10:14:00,33.3,33.0,29.04,South,170,1.0,5.0,97,0.00,,,0.00,weatherlink.com 1.10,2013-02-19 15:14:00,
2013-02-19 10:29:00,33.4,33.0,29.04,SE,138,1.0,4.0,97,0.00,,,0.00,weatherlink.com 1.10,2013-02-19 15:29:00,
2013-02-19 10:44:00,33.5,33.0,29.04,South,184,2.0,7.0,96,0.00,,,0.00,weatherlink.com 1.10,2013-02-19 15:44:00,
2013-02-19 10:59:00,33.3,32.0,29.04,ESE,121,0.0,5.0,96,0.00,,,0.00,weatherlink.com 1.10,2013-02-19 15:59:00,
2013-02-19 11:14:00,33.7,33.0,29.05,SSE,163,1.0,6.0,96,0.00,,,0.00,weatherlink.com 1.10,2013-02-19 16:14:00,
2013-02-19 11:29:00,33.6,33.0,29.07,SSW,204,0.0,6.0,96,0.00,,,0.00,weatherlink.com 1.10,2013-02-19 16:29:00,
2013-02-19 11:44:00,32.9,31.0,29.08,SSE,153,5.0,10.0,94,0.00,,,0.00,weatherlink.com 1.10,2013-02-19 16:44:00,
2013-02-19 11:58:00,32.3,31.0,29.08,West,276,2.0,10.0,95,0.00,,,0.00,weatherlink.com 1.10,2013-02-19 16:58:00,
2013-02-19 12:13:00,31.9,30.0,29.09,WNW,285,5.0,14.0,94,0.00,,,0.00,weatherlink.com 1.10,2013-02-19 17:13:00,
2013-02-19 12:28:00,30.8,29.0,29.11,SW,233,11.0,13.0,93,0.00,,,0.00,weatherlink.com 1.10,2013-02-19 17:28:00,
2013-02-19 12:43:00,30.6,29.0,29.11,SW,235,2.0,10.0,93,0.00,,,0.00,weatherlink.com 1.10,2013-02-19 17:43:00,
2013-02-19 12:58:00,29.8,28.0,29.11,SW,229,15.0,15.0,92,0.00,,,0.00,weatherlink.com 1.10,2013-02-19 17:58:00,
2013-02-19 13:13:00,29.1,27.0,29.12,SW,231,2.0,14.0,92,0.00,,,0.00,weatherlink.com 1.10,2013-02-19 18:13:00,
2013-02-19 13:28:00,28.3,26.0,29.13,WNW,284,5.0,18.0,92,0.00,,,0.00,weatherlink.com 1.10,2013-02-19 18:28:00,
2013-02-19 13:43:00,27.8,26.0,29.14,NE,47,2.0,11.0,92,0.00,,,0.00,weatherlink.com 1.10,2013-02-19 18:43:00,
2013-02-19 13:58:00,27.5,26.0,29.16,NW,318,1.0,13.0,92,0.00,,,0.00,weatherlink.com 1.10,2013-02-19 18:58:00,
2013-02-19 14:13:00,27.0,25.0,29.16,NNW,341,12.0,23.0,92,0.00,,,0.00,weatherlink.com 1.10,2013-02-19 19:13:00,
2013-02-19 14:28:00,26.5,24.0,29.18,West,267,4.0,19.0,91,0.00,,,0.00,weatherlink.com 1.10,2013-02-19 19:28:00,
2013-02-19 14:43:00,26.2,24.0,29.19,WSW,246,6.0,18.0,92,0.00,,,0.00,weatherlink.com 1.10,2013-02-19 19:43:00,
2013-02-19 14:58:00,25.7,24.0,29.21,NW,315,7.0,15.0,93,0.00,,,0.00,weatherlink.com 1.10,2013-02-19 19:58:00,
2013-02-19 15:13:00,24.8,23.0,29.22,NW,311,5.0,18.0,93,0.00,,,0.00,weatherlink.com 1.10,2013-02-19 20:13:00,
2013-02-19 15:29:00,23.7,22.0,29.23,WNW,295,14.0,19.0,92,0.00,,,0.00,weatherlink.com 1.10,2013-02-19 20:29:00,
2013-02-19 15:44:00,23.0,21.0,29.26,NNE,19,1.0,19.0,92,0.00,,,0.00,weatherlink.com 1.10,2013-02-19 20:44:00,
2013-02-19 15:59:00,22.4,20.0,29.27,WSW,250,14.0,20.0,91,0.00,,,0.00,weatherlink.com 1.10,2013-02-19 20:59:00,
2013-02-19 16:14:00,21.7,20.0,29.29,WNW,299,9.0,22.0,92,0.00,,,0.00,weatherlink.com 1.10,2013-02-19 21:14:00,
2013-02-19 16:29:00,20.9,19.0,29.31,NW,306,3.0,19.0,92,0.00,,,0.00,weatherlink.com 1.10,2013-02-19 21:29:00,
2013-02-19 16:44:00,20.4,18.0,29.32,WNW,283,13.0,20.0,90,0.00,,,0.00,weatherlink.com 1.10,2013-02-19 21:44:00,
2013-02-19 16:59:00,19.9,18.0,29.35,NW,326,4.0,19.0,90,0.00,,,0.00,weatherlink.com 1.10,2013-02-19 21:59:00,
2013-02-19 17:14:00,19.2,17.0,29.37,WNW,291,6.0,16.0,90,0.00,,,0.00,weatherlink.com 1.10,2013-02-19 22:14:00,
2013-02-19 17:29:00,18.5,16.0,29.38,North,356,11.0,14.0,90,0.00,,,0.00,weatherlink.com 1.10,2013-02-19 22:29:00,
2013-02-19 17:44:00,17.8,15.0,29.40,SW,218,5.0,20.0,89,0.00,,,0.00,weatherlink.com 1.10,2013-02-19 22:44:00,
2013-02-19 17:59:00,17.2,15.0,29.42,SW,214,5.0,14.0,90,0.00,,,0.00,weatherlink.com 1.10,2013-02-19 22:59:00,
2013-02-19 18:14:00,16.8,14.0,29.43,NNW,330,5.0,17.0,89,0.00,,,0.00,weatherlink.com 1.10,2013-02-19 23:14:00,
2013-02-19 18:29:00,16.3,14.0,29.45,West,273,4.0,14.0,89,0.00,,,0.00,weatherlink.com 1.10,2013-02-19 23:29:00,
2013-02-19 18:44:00,15.5,12.0,29.47,NNW,340,6.0,15.0,86,0.00,,,0.00,weatherlink.com 1.10,2013-02-19 23:44:00,
2013-02-19 18:59:00,14.7,12.0,29.49,NW,307,6.0,14.0,87,0.00,,,0.00,weatherlink.com 1.10,2013-02-19 23:59:00,
2013-02-19 19:14:00,14.4,11.0,29.50,West,272,16.0,16.0,86,0.00,,,0.00,weatherlink.com 1.10,2013-02-20 00:14:00,
2013-02-19 19:29:00,14.1,11.0,29.51,NW,325,4.0,11.0,86,0.00,,,0.00,weatherlink.com 1.10,2013-02-20 00:29:00,
2013-02-19 19:44:00,13.6,9.0,29.52,North,349,7.0,16.0,83,0.00,,,0.00,weatherlink.com 1.10,2013-02-20 00:44:00,
2013-02-19 20:00:00,13.0,9.0,29.54,NW,319,1.0,15.0,84,0.00,,,0.00,weatherlink.com 1.10,2013-02-20 01:00:00,
2013-02-19 20:15:00,12.7,9.0,29.55,NNW,336,8.0,17.0,84,0.00,,,0.00,weatherlink.com 1.10,2013-02-20 01:15:00,
2013-02-19 20:30:00,12.2,8.0,29.56,WNW,294,8.0,14.0,83,0.00,,,0.00,weatherlink.com 1.10,2013-02-20 01:30:00,
2013-02-19 20:45:00,11.9,7.0,29.57,WNW,287,5.0,12.0,82,0.00,,,0.00,weatherlink.com 1.10,2013-02-20 01:45:00,
2013-02-19 21:00:00,11.8,8.0,29.58,NW,326,3.0,7.0,84,0.00,,,0.00,weatherlink.com 1.10,2013-02-20 02:00:00,
2013-02-19 21:15:00,11.6,7.0,29.59,NNW,333,9.0,12.0,83,0.00,,,0.00,weatherlink.com 1.10,2013-02-20 02:15:00,
2013-02-19 21:30:00,10.9,7.0,29.60,NNW,334,15.0,19.0,83,0.00,,,0.00,weatherlink.com 1.10,2013-02-20 02:30:00,
2013-02-19 21:45:00,10.2,6.0,29.60,NNW,343,4.0,14.0,82,0.00,,,0.00,weatherlink.com 1.10,2013-02-20 02:45:00,
2013-02-19 22:00:00,9.8,5.0,29.61,NNW,342,9.0,15.0,82,0.00,,,0.00,weatherlink.com 1.10,2013-02-20 03:00:00,
2013-02-19 22:15:00,9.7,6.0,29.62,WNW,284,7.0,14.0,83,0.00,,,0.00,weatherlink.com 1.10,2013-02-20 03:15:00,
2013-02-19 22:30:00,9.2,5.0,29.63,NNW,347,9.0,13.0,81,0.00,,,0.00,weatherlink.com 1.10,2013-02-20 03:30:00,
2013-02-19 22:45:00,8.7,4.0,29.64,WNW,299,4.0,12.0,81,0.00,,,0.00,weatherlink.com 1.10,2013-02-20 03:45:00,
2013-02-19 23:00:00,8.4,4.0,29.65,NW,321,10.0,12.0,81,0.00,,,0.00,weatherlink.com 1.10,2013-02-20 04:00:00,
2013-02-19 23:15:00,8.2,4.0,29.67,NNW,338,6.0,12.0,81,0.00,,,0.00,weatherlink.com 1.10,2013-02-20 04:15:00,
2013-02-19 23:30:00,8.0,3.0,29.67,North,352,8.0,11.0,81,0.00,,,0.00,weatherlink.com 1.10,2013-02-20 04:30:00,
2013-02-19 23:45:00,7.9,3.0,29.68,NW,313,7.0,10.0,81,0.00,,,0.00,weatherlink.com 1.10,2013-02-20 04:45:00,